Time,TemperatureF,DewpointF,PressureIn,WindDirection,WindDirectionDegrees,WindSpeedMPH,WindSpeedGustMPH,Humidity,HourlyPrecipIn,Conditions,Clouds,dailyrainin,SoftwareType,DateUTC
2018-02-19 00:04:00,30.8,11.9,29.91,SE,130,0.0,0.0,45,0.00,RA,SCT,0.00,WeatherDisplay:10.37,2018-02-19 08:04:00,
2018-02-19 00:09:00,30.8,11.9,29.92,SE,130,0.0,0.0,45,0.00,RA,SCT,0.00,WeatherDisplay:10.37,2018-02-19 08:09:00,
2018-02-19 00:14:00,30.7,11.8,29.92,SE,130,0.0,0.0,45,0.00,CLR,SCT,0.00,WeatherDisplay:10.37,2018-02-19 08:14:00,
2018-02-19 00:19:00,30.7,11.8,29.92,SE,130,0.0,0.0,45,0.00,CLR,SCT,0.00,WeatherDisplay:10.37,2018-02-19 08:19:00,
2018-02-19 00:24:00,30.7,11.8,29.92,SE,130,0.0,0.0,45,0.00,CLR,SCT,0.00,WeatherDisplay:10.37,2018-02-19 08:24:00,
2018-02-19 00:29:00,30.6,11.7,29.92,SE,130,0.0,0.0,45,0.00,CLR,SCT,0.00,WeatherDisplay:10.37,2018-02-19 08:29:00,
2018-02-19 00:35:00,30.6,11.7,29.92,SE,130,0.0,0.0,45,0.00,CLR,SCT,0.00,WeatherDisplay:10.37,2018-02-19 08:35:00,
2018-02-19 00:40:00,30.5,11.7,29.92,SE,130,0.0,0.0,45,0.00,CLR,SCT,0.00,WeatherDisplay:10.37,2018-02-19 08:40:00,
2018-02-19 00:45:00,30.5,11.7,29.93,SE,130,0.0,0.0,45,0.00,CLR,SCT,0.00,WeatherDisplay:10.37,2018-02-19 08:45:00,
2018-02-19 00:50:00,30.5,11.7,29.93,SE,130,0.0,0.0,45,0.00,CLR,SCT,0.00,WeatherDisplay:10.37,2018-02-19 08:50:00,
2018-02-19 00:55:00,30.5,11.7,29.93,SE,130,0.0,0.0,45,0.00,CLR,SCT,0.00,WeatherDisplay:10.37,2018-02-19 08:55:00,
2018-02-19 01:00:00,30.4,11.6,29.93,SE,130,0.0,0.0,45,0.00,CLR,SCT,0.00,WeatherDisplay:10.37,2018-02-19 09:00:00,
2018-02-19 01:05:00,30.4,11.6,29.93,SE,130,0.0,0.0,45,0.00,CLR,SCT,0.00,WeatherDisplay:10.37,2018-02-19 09:05:00,
2018-02-19 01:10:00,30.5,11.7,29.93,SE,130,0.0,0.0,45,0.00,CLR,SCT,0.00,WeatherDisplay:10.37,2018-02-19 09:10:00,
2018-02-19 01:15:00,30.5,11.7,29.94,SE,130,0.0,0.0,45,0.00,CLR,SCT,0.00,WeatherDisplay:10.37,2018-02-19 09:15:00,
2018-02-19 01:20:00,30.5,11.7,29.94,SE,130,0.0,0.0,45,0.00,CLR,SCT,0.00,WeatherDisplay:10.37,2018-02-19 09:20:00,
2018-02-19 01:25:00,30.5,11.7,29.94,SE,130,0.0,0.0,45,0.00,CLR,SCT,0.00,WeatherDisplay:10.37,2018-02-19 09:25:00,
2018-02-19 01:30:00,30.5,11.7,29.94,SE,130,0.0,0.0,45,0.00,CLR,SCT,0.00,WeatherDisplay:10.37,2018-02-19 09:30:00,
2018-02-19 01:35:00,30.4,11.6,29.94,SE,130,0.0,0.0,45,0.00,CLR,SCT,0.00,WeatherDisplay:10.37,2018-02-19 09:35:00,
2018-02-19 01:41:00,30.2,11.4,29.94,SE,130,0.0,0.0,45,0.00,CLR,SCT,0.00,WeatherDisplay:10.37,2018-02-19 09:41:00,
2018-02-19 01:46:00,30.1,11.3,29.95,SE,130,0.0,0.0,45,0.00,CLR,SCT,0.00,WeatherDisplay:10.37,2018-02-19 09:46:00,
2018-02-19 01:51:00,30.0,11.2,29.95,SE,130,0.0,0.0,45,0.00,CLR,SCT,0.00,WeatherDisplay:10.37,2018-02-19 09:51:00,
2018-02-19 01:56:00,29.9,11.1,29.95,SE,130,0.0,0.0,45,0.00,CLR,SCT,0.00,WeatherDisplay:10.37,2018-02-19 09:56:00,
2018-02-19 02:01:00,30.0,11.2,29.95,SE,130,0.0,0.0,45,0.00,CLR,SCT,0.00,WeatherDisplay:10.37,2018-02-19 10:01:00,
2018-02-19 02:06:00,30.0,11.2,29.96,SE,130,0.0,0.0,45,0.00,CLR,SCT,0.00,WeatherDisplay:10.37,2018-02-19 10:06:00,
2018-02-19 02:11:00,30.1,11.3,29.96,SE,130,0.0,0.0,45,0.00,CLR,SCT,0.00,WeatherDisplay:10.37,2018-02-19 10:11:00,
2018-02-19 02:16:00,30.1,11.3,29.96,SE,130,0.0,0.0,45,0.00,CLR,SCT,0.00,WeatherDisplay:10.37,2018-02-19 10:16:00,
2018-02-19 02:21:00,30.1,11.3,29.96,SE,130,0.0,0.0,45,0.00,CLR,SCT,0.00,WeatherDisplay:10.37,2018-02-19 10:21:00,
2018-02-19 02:26:00,30.1,11.3,29.96,SE,130,0.0,0.0,45,0.00,CLR,SCT,0.00,WeatherDisplay:10.37,2018-02-19 10:26:00,
2018-02-19 02:31:00,30.0,11.2,29.96,SE,130,0.0,0.0,45,0.00,CLR,SCT,0.00,WeatherDisplay:10.37,2018-02-19 10:31:00,
2018-02-19 02:36:00,29.9,11.1,29.97,SE,130,0.0,0.0,45,0.00,CLR,SCT,0.00,WeatherDisplay:10.37,2018-02-19 10:36:00,
2018-02-19 02:41:00,29.8,11.0,29.97,SE,130,0.0,0.0,45,0.00,CLR,SCT,0.00,WeatherDisplay:10.37,2018-02-19 10:41:00,
2018-02-19 02:46:00,29.6,10.8,29.97,SE,130,0.0,0.0,45,0.00,CLR,SCT,0.00,WeatherDisplay:10.37,2018-02-19 10:46:00,
2018-02-19 02:51:00,29.5,10.7,29.97,SE,130,0.0,0.0,45,0.00,CLR,SCT,0.00,WeatherDisplay:10.37,2018-02-19 10:51:00,
2018-02-19 02:56:00,29.4,10.6,29.98,SE,130,0.0,0.0,45,0.00,CLR,SCT,0.00,WeatherDisplay:10.37,2018-02-19 10:56:00,
2018-02-19 03:01:00,29.3,10.6,29.98,SE,130,0.0,0.0,45,0.00,CLR,SCT,0.00,WeatherDisplay:10.37,2018-02-19 11:01:00,
2018-02-19 03:06:00,29.3,10.6,29.98,SE,130,0.0,0.0,45,0.00,CLR,SCT,0.00,WeatherDisplay:10.37,2018-02-19 11:06:00,
2018-02-19 03:11:00,29.3,10.6,29.98,SE,130,0.0,0.0,45,0.00,CLR,SCT,0.00,WeatherDisplay:10.37,2018-02-19 11:11:00,
2018-02-19 03:16:00,29.2,10.5,29.99,SE,130,0.0,0.0,45,0.00,CLR,SCT,0.00,WeatherDisplay:10.37,2018-02-19 11:16:00,
2018-02-19 03:21:00,29.2,10.5,29.99,SE,130,0.0,0.0,45,0.00,CLR,SCT,0.00,WeatherDisplay:10.37,2018-02-19 11:21:00,
2018-02-19 03:26:00,29.2,10.5,29.99,SE,130,0.0,0.0,45,0.00,CLR,SCT,0.00,WeatherDisplay:10.37,2018-02-19 11:26:00,
2018-02-19 03:31:00,29.1,10.4,29.99,SE,130,0.0,0.0,45,0.00,CLR,SCT,0.00,WeatherDisplay:10.37,2018-02-19 11:31:00,
2018-02-19 03:36:00,29.2,10.5,29.99,SE,130,0.0,0.0,45,0.00,CLR,SCT,0.00,WeatherDisplay:10.37,2018-02-19 11:36:00,
2018-02-19 03:41:00,29.2,10.5,29.99,SE,130,0.0,0.0,45,0.00,CLR,SCT,0.00,WeatherDisplay:10.37,2018-02-19 11:41:00,
2018-02-19 03:46:00,29.2,10.5,29.99,SE,130,0.0,0.0,45,0.00,CLR,SCT,0.00,WeatherDisplay:10.37,2018-02-19 11:46:00,
2018-02-19 03:51:00,29.3,10.6,30.00,SE,130,0.0,0.0,45,0.00,CLR,SCT,0.00,WeatherDisplay:10.37,2018-02-19 11:51:00,
2018-02-19 03:56:00,29.2,10.5,29.99,SE,130,0.0,0.0,45,0.00,CLR,SCT,0.00,WeatherDisplay:10.37,2018-02-19 11:56:00,
2018-02-19 04:01:00,29.2,10.5,30.00,SE,130,0.0,0.0,45,0.00,CLR,SCT,0.00,WeatherDisplay:10.37,2018-02-19 12:01:00,
2018-02-19 04:06:00,29.0,10.3,30.00,SE,130,0.0,0.0,45,0.00,CLR,SCT,0.00,WeatherDisplay:10.37,2018-02-19 12:06:00,
2018-02-19 04:11:00,29.0,10.3,30.00,SE,130,0.0,0.0,45,0.00,CLR,SCT,0.00,WeatherDisplay:10.37,2018-02-19 12:11:00,
2018-02-19 04:16:00,29.0,10.3,30.00,SE,130,0.0,0.0,45,0.00,CLR,SCT,0.00,WeatherDisplay:10.37,2018-02-19 12:16:00,
2018-02-19 04:21:00,28.9,10.2,30.00,SE,130,0.0,0.0,45,0.00,CLR,SCT,0.00,WeatherDisplay:10.37,2018-02-19 12:21:00,
2018-02-19 04:26:00,28.8,10.6,30.01,SE,130,0.0,0.0,46,0.00,CLR,SCT,0.00,WeatherDisplay:10.37,2018-02-19 12:26:00,
2018-02-19 04:31:00,28.8,10.6,30.01,SE,130,0.0,0.0,46,0.00,CLR,SCT,0.00,WeatherDisplay:10.37,2018-02-19 12:31:00,
2018-02-19 04:36:00,28.7,10.5,30.01,SE,130,0.0,0.0,46,0.00,CLR,SCT,0.00,WeatherDisplay:10.37,2018-02-19 12:36:00,
2018-02-19 04:41:00,28.7,10.5,30.01,SE,130,0.0,0.0,46,0.00,CLR,SCT,0.00,WeatherDisplay:10.37,2018-02-19 12:41:00,
2018-02-19 04:46:00,28.7,10.5,30.02,SE,130,0.0,0.0,46,0.00,CLR,SCT,0.00,WeatherDisplay:10.37,2018-02-19 12:46:00,
2018-02-19 04:51:00,28.7,10.0,30.02,SE,130,0.0,0.0,45,0.00,CLR,SCT,0.00,WeatherDisplay:10.37,2018-02-19 12:51:00,
2018-02-19 04:56:00,28.8,10.1,30.02,SE,130,0.0,0.0,45,0.00,CLR,SCT,0.00,WeatherDisplay:10.37,2018-02-19 12:56:00,
2018-02-19 05:01:00,28.8,10.1,30.03,SE,130,0.0,0.0,45,0.00,CLR,SCT,0.00,WeatherDisplay:10.37,2018-02-19 13:01:00,
2018-02-19 05:06:00,28.9,10.2,30.03,SE,130,0.0,0.0,45,0.00,CLR,SCT,0.00,WeatherDisplay:10.37,2018-02-19 13:06:00,
2018-02-19 05:11:00,28.9,10.2,30.03,SE,130,0.0,0.0,45,0.00,CLR,SCT,0.00,WeatherDisplay:10.37,2018-02-19 13:11:00,
2018-02-19 05:16:00,28.9,10.2,30.03,SE,130,0.0,0.0,45,0.00,CLR,SCT,0.00,WeatherDisplay:10.37,2018-02-19 13:16:00,
2018-02-19 05:21:00,28.9,10.2,30.03,SE,130,0.0,0.0,45,0.00,CLR,SCT,0.00,WeatherDisplay:10.37,2018-02-19 13:21:00,
2018-02-19 05:26:00,28.9,10.2,30.03,SE,130,0.0,0.0,45,0.00,CLR,SCT,0.00,WeatherDisplay:10.37,2018-02-19 13:26:00,
2018-02-19 05:31:00,29.0,10.3,30.04,SE,130,0.0,0.0,45,0.00,CLR,SCT,0.00,WeatherDisplay:10.37,2018-02-19 13:31:00,
2018-02-19 05:36:00,29.0,10.3,30.04,SE,138,0.0,0.0,45,0.00,CLR,SCT,0.00,WeatherDisplay:10.37,2018-02-19 13:36:00,
2018-02-19 05:41:00,29.3,10.6,30.05,SE,138,0.0,0.0,45,0.00,CLR,SCT,0.00,WeatherDisplay:10.37,2018-02-19 13:41:00,
2018-02-19 05:46:00,29.3,10.6,30.05,SE,138,0.0,0.0,45,0.00,CLR,SCT,0.00,WeatherDisplay:10.37,2018-02-19 13:46:00,
2018-02-19 05:51:00,29.3,10.6,30.05,SE,138,0.0,0.0,45,0.00,CLR,SCT,0.00,WeatherDisplay:10.37,2018-02-19 13:51:00,
2018-02-19 05:56:00,29.4,10.6,30.05,SE,138,0.0,0.0,45,0.00,CLR,SCT,0.00,WeatherDisplay:10.37,2018-02-19 13:56:00,
2018-02-19 06:01:00,29.5,10.7,30.06,SE,138,0.0,0.0,45,0.00,CLR,SCT,0.00,WeatherDisplay:10.37,2018-02-19 14:01:00,
2018-02-19 06:06:00,29.5,10.7,30.06,SE,138,0.0,0.0,45,0.00,CLR,SCT,0.00,WeatherDisplay:10.37,2018-02-19 14:06:00,
2018-02-19 06:11:00,29.5,10.7,30.06,SE,138,0.0,0.0,45,0.00,CLR,SCT,0.00,WeatherDisplay:10.37,2018-02-19 14:11:00,
2018-02-19 06:16:00,29.5,10.7,30.06,SE,138,0.0,0.0,45,0.00,CLR,SCT,0.00,WeatherDisplay:10.37,2018-02-19 14:16:00,
2018-02-19 06:21:00,29.5,10.7,30.06,SE,138,0.0,0.0,45,0.00,CLR,SCT,0.00,WeatherDisplay:10.37,2018-02-19 14:21:00,
2018-02-19 06:26:00,29.5,10.7,30.06,SE,138,0.0,0.0,45,0.00,CLR,SCT,0.00,WeatherDisplay:10.37,2018-02-19 14:26:00,
2018-02-19 06:31:00,29.5,10.7,30.06,SE,138,0.0,0.0,45,0.00,CLR,SCT,0.00,WeatherDisplay:10.37,2018-02-19 14:31:00,
2018-02-19 06:36:00,29.6,10.8,30.06,SE,138,0.0,0.0,45,0.00,CLR,SCT,0.00,WeatherDisplay:10.37,2018-02-19 14:36:00,
2018-02-19 06:41:00,29.6,10.8,30.06,SE,138,0.0,0.0,45,0.00,CLR,SCT,0.00,WeatherDisplay:10.37,2018-02-19 14:41:00,
2018-02-19 06:46:00,29.7,10.4,30.07,SE,138,0.0,0.0,44,0.00,CLR,SCT,0.00,WeatherDisplay:10.37,2018-02-19 14:46:00,
2018-02-19 06:51:00,29.7,10.4,30.07,SE,138,0.0,0.0,44,0.00,CLR,SCT,0.00,WeatherDisplay:10.37,2018-02-19 14:51:00,
2018-02-19 06:56:00,29.7,10.4,30.07,SE,138,0.0,0.0,44,0.00,CLR,SCT,0.00,WeatherDisplay:10.37,2018-02-19 14:56:00,
2018-02-19 07:01:00,29.7,10.4,30.07,SE,138,0.0,0.0,44,0.00,CLR,SCT,0.00,WeatherDisplay:10.37,2018-02-19 15:01:00,
2018-02-19 07:06:00,29.7,10.4,30.07,SE,138,0.0,0.0,44,0.00,CLR,SCT,0.00,WeatherDisplay:10.37,2018-02-19 15:06:00,
2018-02-19 07:11:00,29.8,10.5,30.07,SE,138,0.0,0.0,44,0.00,CLR,SCT,0.00,WeatherDisplay:10.37,2018-02-19 15:11:00,
2018-02-19 07:16:00,29.8,10.5,30.07,SE,138,0.0,0.0,44,0.00,CLR,SCT,0.00,WeatherDisplay:10.37,2018-02-19 15:16:00,
2018-02-19 07:21:00,29.8,10.5,30.08,SE,138,0.0,0.0,44,0.00,CLR,SCT,0.00,WeatherDisplay:10.37,2018-02-19 15:21:00,
2018-02-19 07:26:00,29.8,10.5,30.08,SE,138,0.0,0.0,44,0.00,CLR,SCT,0.00,WeatherDisplay:10.37,2018-02-19 15:26:00,
2018-02-19 07:31:00,29.9,10.6,30.08,SE,138,0.0,0.0,44,0.00,CLR,SCT,0.00,WeatherDisplay:10.37,2018-02-19 15:31:00,
2018-02-19 07:36:00,29.9,10.6,30.09,SE,138,0.0,0.0,44,0.00,CLR,SCT,0.00,WeatherDisplay:10.37,2018-02-19 15:36:00,
2018-02-19 07:41:00,30.0,10.7,30.09,SE,138,0.0,0.0,44,0.00,CLR,SCT,0.00,WeatherDisplay:10.37,2018-02-19 15:41:00,
2018-02-19 07:46:00,30.0,10.7,30.09,SE,138,0.0,0.0,44,0.00,CLR,SCT,0.00,WeatherDisplay:10.37,2018-02-19 15:46:00,
2018-02-19 07:51:00,30.0,10.7,30.09,SE,138,0.0,0.0,44,0.00,CLR,SCT,0.00,WeatherDisplay:10.37,2018-02-19 15:51:00,
2018-02-19 07:56:00,30.1,10.8,30.09,SE,138,0.0,0.0,44,0.00,CLR,SCT,0.00,WeatherDisplay:10.37,2018-02-19 15:56:00,
2018-02-19 08:01:00,30.1,10.8,30.09,SE,138,0.0,0.0,44,0.00,CLR,SCT,0.00,WeatherDisplay:10.37,2018-02-19 16:01:00,
2018-02-19 08:06:00,30.2,10.9,30.10,SE,138,0.0,0.0,44,0.00,CLR,SCT,0.00,WeatherDisplay:10.37,2018-02-19 16:06:00,
2018-02-19 08:11:00,30.3,11.0,30.10,SE,138,0.0,0.0,44,0.00,CLR,SCT,0.00,WeatherDisplay:10.37,2018-02-19 16:11:00,
2018-02-19 08:16:00,30.4,11.1,30.11,SE,138,0.0,0.0,44,0.00,CLR,SCT,0.00,WeatherDisplay:10.37,2018-02-19 16:16:00,
2018-02-19 08:21:00,30.5,11.1,30.11,SE,138,0.0,0.0,44,0.00,CLR,SCT,0.00,WeatherDisplay:10.37,2018-02-19 16:21:00,
2018-02-19 08:26:00,30.6,11.2,30.11,SE,138,0.0,0.0,44,0.00,CLR,SCT,0.00,WeatherDisplay:10.37,2018-02-19 16:26:00,
2018-02-19 08:31:00,30.7,11.3,30.11,SE,138,0.0,0.0,44,0.00,CLR,SCT,0.00,WeatherDisplay:10.37,2018-02-19 16:31:00,
2018-02-19 08:36:00,30.8,11.4,30.11,SE,138,0.0,0.0,44,0.00,CLR,SCT,0.00,WeatherDisplay:10.37,2018-02-19 16:36:00,
2018-02-19 08:41:00,31.0,11.1,30.11,SE,138,0.0,0.0,43,0.00,CLR,SCT,0.00,WeatherDisplay:10.37,2018-02-19 16:41:00,
2018-02-19 08:46:00,31.2,11.3,30.11,SE,138,0.0,0.0,43,0.00,CLR,SCT,0.00,WeatherDisplay:10.37,2018-02-19 16:46:00,
2018-02-19 08:51:00,31.4,11.5,30.11,SE,138,0.0,0.0,43,0.00,CLR,SCT,0.00,WeatherDisplay:10.37,2018-02-19 16:51:00,
2018-02-19 08:56:00,31.5,11.5,30.12,SE,138,0.0,0.0,43,0.00,CLR,SCT,0.00,WeatherDisplay:10.37,2018-02-19 16:56:00,
2018-02-19 09:01:00,31.7,11.7,30.12,SE,138,0.0,0.0,43,0.00,CLR,SCT,0.00,WeatherDisplay:10.37,2018-02-19 17:01:00,
2018-02-19 09:06:00,31.9,11.9,30.12,SE,138,0.0,0.0,43,0.00,CLR,SCT,0.00,WeatherDisplay:10.37,2018-02-19 17:06:00,
2018-02-19 09:11:00,32.0,11.5,30.12,ESE,110,0.0,0.0,42,0.00,CLR,SCT,0.00,WeatherDisplay:10.37,2018-02-19 17:11:00,
2018-02-19 09:16:00,32.2,11.6,30.13,ESE,115,1.0,0.0,42,0.00,CLR,SCT,0.00,WeatherDisplay:10.37,2018-02-19 17:16:00,
2018-02-19 09:21:00,32.5,11.9,30.13,SE,125,0.0,0.0,42,0.00,CLR,SCT,0.00,WeatherDisplay:10.37,2018-02-19 17:21:00,
2018-02-19 09:26:00,32.7,12.1,30.13,ESE,103,0.0,0.0,42,0.00,CLR,SCT,0.00,WeatherDisplay:10.37,2018-02-19 17:26:00,
2018-02-19 09:31:00,32.8,12.2,30.13,ESE,103,0.0,0.0,42,0.00,CLR,SCT,0.00,WeatherDisplay:10.37,2018-02-19 17:31:00,
2018-02-19 09:36:00,33.1,12.5,30.13,ESE,103,1.0,1.0,42,0.00,CLR,SCT,0.00,WeatherDisplay:10.37,2018-02-19 17:36:00,
2018-02-19 09:41:00,33.2,12.6,30.14,ESE,103,0.0,0.0,42,0.00,CLR,SCT,0.00,WeatherDisplay:10.37,2018-02-19 17:41:00,
2018-02-19 09:46:00,33.4,12.7,30.14,ESE,103,0.0,0.0,42,0.00,CLR,SCT,0.00,WeatherDisplay:10.37,2018-02-19 17:46:00,
2018-02-19 09:51:00,33.6,12.9,30.14,SSE,150,0.0,0.0,42,0.00,CLR,SCT,0.00,WeatherDisplay:10.37,2018-02-19 17:51:00,
2018-02-19 09:56:00,33.4,12.7,30.14,SSE,149,0.0,0.0,42,0.00,CLR,SCT,0.00,WeatherDisplay:10.37,2018-02-19 17:56:00,
2018-02-19 10:01:00,33.5,12.8,30.15,SSE,148,1.0,0.0,42,0.00,CLR,SCT,0.00,WeatherDisplay:10.37,2018-02-19 18:01:00,
2018-02-19 10:06:00,33.4,12.7,30.15,SSE,160,0.0,0.0,42,0.00,CLR,SCT,0.00,WeatherDisplay:10.37,2018-02-19 18:06:00,
2018-02-19 10:11:00,33.5,12.8,30.15,SSE,149,3.5,3.5,42,0.00,CLR,SCT,0.00,WeatherDisplay:10.37,2018-02-19 18:11:00,
2018-02-19 10:16:00,33.6,12.9,30.15,NE,49,0.0,0.0,42,0.01,RA,SCT,0.01,WeatherDisplay:10.37,2018-02-19 18:16:00,
2018-02-19 10:21:00,34.1,12.8,30.16,NE,50,1.2,0.0,41,0.01,RA,SCT,0.01,WeatherDisplay:10.37,2018-02-19 18:21:00,
2018-02-19 10:26:00,34.8,13.5,30.16,SSE,149,0.0,0.0,41,0.01,,SCT,0.01,WeatherDisplay:10.37,2018-02-19 18:26:00,
2018-02-19 10:31:00,35.3,13.9,30.16,SE,142,3.5,3.5,41,0.01,CLR,SCT,0.01,WeatherDisplay:10.37,2018-02-19 18:31:00,
2018-02-19 10:36:00,35.7,14.3,30.16,SSE,150,0.0,0.0,41,0.01,CLR,SCT,0.01,WeatherDisplay:10.37,2018-02-19 18:36:00,
2018-02-19 10:41:00,35.9,15.0,30.16,SSE,150,0.0,0.0,42,0.02,RA,SCT,0.02,WeatherDisplay:10.37,2018-02-19 18:41:00,
2018-02-19 10:46:00,35.9,16.1,30.17,South,171,0.0,0.0,44,0.02,RA,SCT,0.02,WeatherDisplay:10.37,2018-02-19 18:46:00,
2018-02-19 10:51:00,35.9,18.1,30.17,SSE,161,2.3,2.3,48,0.02,,SCT,0.02,WeatherDisplay:10.37,2018-02-19 18:51:00,
2018-02-19 10:56:00,36.4,19.5,30.17,SSE,161,0.0,0.0,50,0.02,CLR,SCT,0.02,WeatherDisplay:10.37,2018-02-19 18:56:00,
2018-02-19 11:01:00,36.8,19.9,30.17,SSE,161,0.0,0.0,50,0.02,CLR,SCT,0.02,WeatherDisplay:10.37,2018-02-19 19:01:00,
2018-02-19 11:06:00,37.1,20.6,30.17,SSE,161,0.0,0.0,51,0.02,CLR,SCT,0.02,WeatherDisplay:10.37,2018-02-19 19:06:00,
2018-02-19 11:11:00,37.4,22.7,30.17,SSE,161,0.0,0.0,55,0.02,CLR,SCT,0.02,WeatherDisplay:10.37,2018-02-19 19:11:00,
2018-02-19 11:16:00,37.5,24.1,30.17,SSE,156,2.3,2.3,58,0.02,RA,SCT,0.03,WeatherDisplay:10.37,2018-02-19 19:16:00,
2018-02-19 11:21:00,37.8,25.9,30.17,SE,141,0.0,0.0,62,0.02,RA,SCT,0.03,WeatherDisplay:10.37,2018-02-19 19:21:00,
2018-02-19 11:26:00,38.1,27.0,30.18,SE,141,0.0,0.0,64,0.02,,SCT,0.03,WeatherDisplay:10.37,2018-02-19 19:26:00,
2018-02-19 11:31:00,38.4,27.7,30.18,SSE,163,1.0,0.0,65,0.02,CLR,SCT,0.03,WeatherDisplay:10.37,2018-02-19 19:31:00,
2018-02-19 11:41:00,39.2,28.8,30.18,SSE,157,3.5,3.5,66,0.01,CLR,SCT,0.03,WeatherDisplay:10.37,2018-02-19 19:41:00,
2018-02-19 11:46:00,39.9,30.2,30.18,SSE,157,0.0,0.0,68,0.01,CLR,SCT,0.03,WeatherDisplay:10.37,2018-02-19 19:46:00,
2018-02-19 11:51:00,40.4,31.0,30.18,SE,125,1.0,0.0,69,0.02,RA,SCT,0.04,WeatherDisplay:10.37,2018-02-19 19:51:00,
2018-02-19 11:56:00,40.4,32.4,30.18,SSE,158,6.0,6.0,73,0.02,RA,SCT,0.04,WeatherDisplay:10.37,2018-02-19 19:56:00,
2018-02-19 12:01:00,40.2,32.9,30.18,SSE,149,3.5,3.5,75,0.02,,SCT,0.04,WeatherDisplay:10.37,2018-02-19 20:01:00,
2018-02-19 12:06:00,40.6,33.3,30.18,NE,34,0.0,0.0,75,0.02,CLR,SCT,0.04,WeatherDisplay:10.37,2018-02-19 20:06:00,
2018-02-19 12:11:00,40.9,33.6,30.18,SSE,153,1.2,0.0,75,0.02,CLR,SCT,0.04,WeatherDisplay:10.37,2018-02-19 20:11:00,
2018-02-19 12:16:00,41.6,33.9,30.18,NNW,341,2.3,2.3,74,0.01,CLR,SCT,0.04,WeatherDisplay:10.37,2018-02-19 20:16:00,
2018-02-19 12:21:00,41.5,34.5,30.18,NNW,342,0.0,0.0,76,0.02,RA,SCT,0.05,WeatherDisplay:10.37,2018-02-19 20:21:00,
2018-02-19 12:26:00,41.9,34.9,30.18,NNW,344,0.0,0.0,76,0.02,RA,SCT,0.05,WeatherDisplay:10.37,2018-02-19 20:26:00,
2018-02-19 12:31:00,42.0,35.0,30.18,SSE,163,3.5,3.5,76,0.02,,SCT,0.05,WeatherDisplay:10.37,2018-02-19 20:31:00,
2018-02-19 12:36:00,41.9,34.9,30.18,South,177,7.0,7.0,76,0.02,CLR,SCT,0.05,WeatherDisplay:10.37,2018-02-19 20:36:00,
2018-02-19 12:41:00,41.8,34.8,30.18,SSE,161,3.5,3.5,76,0.02,CLR,SCT,0.05,WeatherDisplay:10.37,2018-02-19 20:41:00,
2018-02-19 12:46:00,42.0,35.0,30.18,SSW,192,11.5,11.5,76,0.03,RA,SCT,0.06,WeatherDisplay:10.37,2018-02-19 20:46:00,
2018-02-19 12:51:00,41.8,34.5,30.18,South,177,4.6,4.6,75,0.02,RA,SCT,0.06,WeatherDisplay:10.37,2018-02-19 20:51:00,
2018-02-19 12:56:00,41.5,34.5,30.18,SSE,153,3.0,3.0,76,0.02,,SCT,0.06,WeatherDisplay:10.37,2018-02-19 20:56:00,
2018-02-19 13:01:00,41.1,34.1,30.18,SSW,192,3.5,0.0,76,0.02,CLR,SCT,0.06,WeatherDisplay:10.37,2018-02-19 21:01:00,
2018-02-19 13:06:00,40.9,33.9,30.18,North,351,0.0,0.0,76,0.02,CLR,SCT,0.06,WeatherDisplay:10.37,2018-02-19 21:06:00,
2018-02-19 13:11:00,40.9,33.9,30.18,SSE,167,0.0,0.0,76,0.02,CLR,SCT,0.06,WeatherDisplay:10.37,2018-02-19 21:11:00,
2018-02-19 13:16:00,40.4,33.1,30.18,North,360,0.0,0.0,75,0.02,CLR,SCT,0.06,WeatherDisplay:10.37,2018-02-19 21:16:00,
2018-02-19 13:21:00,40.4,33.4,30.18,SE,144,0.0,0.1,76,0.01,CLR,SCT,0.06,WeatherDisplay:10.37,2018-02-19 21:21:00,
2018-02-19 13:22:00,40.4,33.4,30.18,SE,144,1.2,0.0,76,0.01,CLR,SCT,0.06,WeatherDisplay:10.37,2018-02-19 21:22:00,
2018-02-19 13:27:00,40.3,33.3,30.18,WSW,239,0.0,0.0,76,0.01,CLR,SCT,0.06,WeatherDisplay:10.37,2018-02-19 21:27:00,
2018-02-19 13:32:00,40.4,33.8,30.18,WSW,239,0.0,0.0,77,0.01,CLR,SCT,0.06,WeatherDisplay:10.37,2018-02-19 21:32:00,
2018-02-19 13:37:00,40.5,33.5,30.18,WSW,239,0.0,0.0,76,0.01,CLR,SCT,0.06,WeatherDisplay:10.37,2018-02-19 21:37:00,
2018-02-19 13:42:00,40.9,34.2,30.18,SW,221,0.0,0.0,77,0.00,CLR,SCT,0.06,WeatherDisplay:10.37,2018-02-19 21:42:00,
2018-02-19 13:47:00,41.1,34.1,30.18,SSE,147,0.0,0.0,76,0.01,RA,SCT,0.07,WeatherDisplay:10.37,2018-02-19 21:47:00,
2018-02-19 13:52:00,41.6,34.6,30.18,SSE,157,3.5,3.5,76,0.01,RA,SCT,0.07,WeatherDisplay:10.37,2018-02-19 21:52:00,
2018-02-19 13:57:00,41.8,34.8,30.18,SSE,159,0.0,0.0,76,0.01,,SCT,0.07,WeatherDisplay:10.37,2018-02-19 21:57:00,
2018-02-19 14:02:00,41.9,34.9,30.18,SSE,164,3.5,3.5,76,0.01,,SCT,0.07,WeatherDisplay:10.37,2018-02-19 22:02:00,
2018-02-19 14:07:00,41.5,34.2,30.18,SSE,157,0.0,0.0,75,0.01,CLR,SCT,0.07,WeatherDisplay:10.37,2018-02-19 22:07:00,
2018-02-19 14:12:00,41.3,34.0,30.18,SSE,164,3.5,0.0,75,0.01,CLR,SCT,0.07,WeatherDisplay:10.37,2018-02-19 22:12:00,
2018-02-19 14:17:00,40.9,33.6,30.18,SSE,155,0.0,0.0,75,0.01,CLR,SCT,0.07,WeatherDisplay:10.37,2018-02-19 22:17:00,
2018-02-19 14:22:00,40.9,33.9,30.18,SSE,155,0.0,0.0,76,0.01,CLR,SCT,0.07,WeatherDisplay:10.37,2018-02-19 22:22:00,